Aeroporto :
LOGIN :

Iscrizione | Disclaimer

   EN    FR    IT 

 










Sommario :    VFR   VFR Marginale   IFR   IFR Intensivo   IFR Molto Intensivo
Visibilità : 
Base nubi : 
>= 8 km
>= 3000ft
5 / 8 km
1000 / 3000 ft
1500m / 5 km
500 / 1000 ft
800 / 1500m
200 / 500 ft
< 800m
< 200 ft
Simboli :   Temporali  Nebbia  Neve Forte  Precipitazioni Forti  Vento > 20 kt
SIGMETs :   Varie  Temporali  Ghiacco  Turbolenza  Onda orograficha  Ceneri Vulcaniche







- Altitudine del aeroporto : 177 ft
- Codice IATA : BRI


LIBD - Palese Macchie Bari

ULTIMO METAR :
  • 201420Z 02009KT CAVOK 18/10 Q1024

METARs OBSOLETI :
  • 201350Z 01009KT CAVOK 18/10 Q1024
  • 201320Z 02008KT CAVOK 19/09 Q1024
  • 201250Z 01008KT 340V060 CAVOK 18/09 Q1024
  • 201220Z 01010KT 340V040 CAVOK 18/09 Q1024
  • 201150Z 01009KT 340V050 CAVOK 18/09 Q1025

TAF TAF LIBD
Valido dal 20 a 12 ore il 21 a 12 ore UTC


201100Z 2012/2112 03012KT CAVOK
BECMG 2017/2020 28008KT
BECMG 2108/2110 07012KT
Nessun NOTAM noto per questo aeroporto.



MetMap, La meteo Aeronautica in un colpo d'occhio ! - Copyright ORBIFLY Dicembre 2007 - Disclaimer

ORBIFLY MET'MAP TEAM :

Programmazione e sviluppo : Alexandra Zaïnal
Concezione e sviluppo : Baudouin d'Aumeries
Co-Programmazione e sviluppo : Marc-Olivier Méhu
Supporto tecnico e logistico : Manuel Goepfert
Aiuto per la traduzione : Arnaldo La Scala

Contatto : metmap@orbifly.com




FONTI E CREDITI :

   NOAA